createdAt,value
2019-06-07T00:00:40.311Z,97935.00
2019-06-07T00:05:48.672Z,97984.00
2019-06-07T00:10:55.935Z,97981.00
2019-06-07T00:16:03.320Z,97982.00
2019-06-07T00:21:11.794Z,97999.00
2019-06-07T00:26:21.219Z,98004.00
2019-06-07T00:31:29.499Z,98007.00
2019-06-07T00:36:37.684Z,98018.00
2019-06-07T00:41:45.423Z,98017.00
2019-06-07T00:46:52.676Z,98017.00
2019-06-07T00:52:00.018Z,98021.00
2019-06-07T00:57:07.688Z,98029.00
2019-06-07T01:02:18.551Z,98032.00
2019-06-07T01:07:26.021Z,98039.00
2019-06-07T01:12:33.280Z,98035.00
2019-06-07T01:18:32.123Z,98041.00
2019-06-07T01:22:51.648Z,98047.00
2019-06-07T01:27:59.473Z,98056.00
2019-06-07T01:33:10.011Z,98065.00
2019-06-07T01:38:21.323Z,98057.00
2019-06-07T01:43:30.463Z,98056.00
2019-06-07T01:48:49.053Z,98046.00
2019-06-07T01:53:46.363Z,98046.00
2019-06-07T01:58:53.702Z,98045.00
2019-06-07T02:04:01.112Z,98045.00
2019-06-07T02:09:09.337Z,98039.00
2019-06-07T02:14:17.380Z,98045.00
2019-06-07T02:19:27.459Z,98030.00
2019-06-07T02:24:36.466Z,98029.00
2019-06-07T02:29:44.839Z,98035.00
2019-06-07T02:34:51.998Z,98047.00
2019-06-07T02:40:00.278Z,98040.00
2019-06-07T02:45:10.863Z,98042.00
2019-06-07T02:50:19.532Z,98041.00
2019-06-07T02:55:31.214Z,98047.00
2019-06-07T03:01:09.045Z,98041.00
2019-06-07T03:06:00.290Z,98051.00
2019-06-07T03:11:08.653Z,98049.00
2019-06-07T03:16:20.211Z,98049.00
2019-06-07T03:21:31.326Z,98039.00
2019-06-07T03:27:30.543Z,98042.00
2019-06-07T03:31:49.191Z,98046.00
2019-06-07T03:36:56.563Z,98053.00
2019-06-07T03:42:06.708Z,98053.00
2019-06-07T03:47:13.368Z,98055.00
2019-06-07T03:52:20.794Z,98058.00
2019-06-07T03:57:30.376Z,98052.00
2019-06-07T04:02:41.519Z,98057.00
2019-06-07T04:07:47.264Z,98054.00
2019-06-07T04:12:54.609Z,98055.00
2019-06-07T04:18:04.014Z,98064.00
2019-06-07T04:23:27.288Z,98054.00
2019-06-07T04:28:20.987Z,98054.00
2019-06-07T04:33:50.153Z,98065.00
2019-06-07T04:38:59.012Z,98071.00
2019-06-07T04:44:16.025Z,98074.00
2019-06-07T04:49:27.239Z,98072.00
2019-06-07T04:54:52.493Z,98070.00
2019-06-07T05:00:12.742Z,98069.00
2019-06-07T05:05:29.294Z,98066.00
2019-06-07T05:10:43.065Z,98073.00
2019-06-07T05:15:48.853Z,98078.00
2019-06-07T05:21:15.478Z,98075.00
2019-06-07T05:26:30.479Z,98072.00
2019-06-07T05:31:44.201Z,98071.00
2019-06-07T05:37:11.123Z,98078.00
2019-06-07T05:42:03.775Z,98072.00
2019-06-07T05:47:29.608Z,98071.00
2019-06-07T05:52:40.491Z,98074.00
2019-06-07T05:57:50.969Z,98068.00
2019-06-07T06:03:05.493Z,98069.00
2019-06-07T06:08:06.792Z,98064.00
2019-06-07T06:13:14.665Z,98060.00
2019-06-07T06:18:45.737Z,98072.00
2019-06-07T06:23:53.840Z,98063.00
2019-06-07T06:29:01.366Z,98046.00
2019-06-07T06:34:09.422Z,98047.00
2019-06-07T06:39:16.806Z,98043.00
2019-06-07T06:44:24.624Z,98044.00
2019-06-07T06:49:31.880Z,98042.00
2019-06-07T06:54:46.092Z,98036.00
2019-06-07T06:59:51.090Z,98050.00
2019-06-07T07:05:17.235Z,98057.00
2019-06-07T07:10:45.736Z,98053.00
2019-06-07T07:15:58.172Z,98061.00
2019-06-07T07:21:02.945Z,98067.00
2019-06-07T07:26:12.500Z,98067.00
2019-06-07T07:31:19.695Z,98072.00
2019-06-07T07:36:38.655Z,98078.00
2019-06-07T07:42:13.826Z,98087.00
2019-06-07T07:46:58.004Z,98087.00
2019-06-07T07:52:05.443Z,98076.00
2019-06-07T07:57:30.938Z,98070.00
2019-06-07T08:02:38.413Z,98073.00
2019-06-07T08:07:49.985Z,98064.00
2019-06-07T08:13:19.182Z,98076.00
2019-06-07T08:18:05.862Z,98077.00
2019-06-07T08:23:31.548Z,98088.00
2019-06-07T08:28:38.853Z,98068.00
2019-06-07T08:33:47.771Z,98062.00
2019-06-07T08:39:00.442Z,98052.00
2019-06-07T08:44:22.403Z,98036.00
2019-06-07T08:49:29.322Z,98029.00
2019-06-07T08:54:36.803Z,98033.00
2019-06-07T08:59:53.041Z,98029.00
2019-06-07T09:05:10.715Z,98027.00
2019-06-07T09:10:15.176Z,98011.00
2019-06-07T09:15:24.435Z,98018.00
2019-06-07T09:20:49.966Z,98012.00
2019-06-07T09:26:09.839Z,98000.00
2019-06-07T09:31:10.414Z,98022.00
2019-06-07T09:36:16.275Z,98001.00
2019-06-07T09:41:45.534Z,97988.00
2019-06-07T09:46:35.106Z,97983.00
2019-06-07T09:51:42.339Z,97979.00
2019-06-07T09:56:50.308Z,97962.00
2019-06-07T10:01:59.528Z,97971.00
2019-06-07T10:07:16.956Z,97967.00
2019-06-07T10:12:28.038Z,97957.00
2019-06-07T10:17:36.390Z,97948.00
2019-06-07T10:23:03.709Z,97943.00
2019-06-07T10:28:29.474Z,97943.00
2019-06-07T10:33:54.690Z,97935.00
2019-06-07T10:39:03.110Z,97932.00
2019-06-07T10:44:12.066Z,97920.00
2019-06-07T10:49:19.298Z,97914.00
2019-06-07T10:54:30.665Z,97925.00
2019-06-07T10:59:37.020Z,97918.00
2019-06-07T11:04:44.284Z,97913.00
2019-06-07T11:10:06.297Z,97905.00
2019-06-07T11:15:02.157Z,97910.00
2019-06-07T11:20:12.477Z,97885.00
2019-06-07T11:25:38.074Z,97890.00
2019-06-07T11:30:45.322Z,97893.00
2019-06-07T11:35:53.211Z,97893.00
2019-06-07T11:41:01.248Z,97886.00
2019-06-07T11:46:12.948Z,97862.00
2019-06-07T11:51:21.208Z,97866.00
2019-06-07T11:56:28.845Z,97853.00
2019-06-07T12:01:37.381Z,97846.00
2019-06-07T12:06:45.625Z,97862.00
2019-06-07T12:11:52.820Z,97840.00
2019-06-07T12:17:01.291Z,97846.00
2019-06-07T12:22:09.870Z,97824.00
2019-06-07T12:27:26.441Z,97831.00
2019-06-07T12:32:33.743Z,97828.00
2019-06-07T12:37:44.872Z,97831.00
2019-06-07T12:42:53.173Z,97825.00
2019-06-07T12:48:01.357Z,97828.00
2019-06-07T12:53:09.198Z,97810.00
2019-06-07T12:58:16.363Z,97813.00
2019-06-07T13:03:24.696Z,97803.00
2019-06-07T13:08:38.716Z,97795.00
2019-06-07T13:13:48.780Z,97788.00
2019-06-07T13:18:56.672Z,97790.00
2019-06-07T13:24:03.904Z,97777.00
2019-06-07T13:29:31.990Z,97780.00
2019-06-07T13:34:51.308Z,97776.00
2019-06-07T13:39:58.633Z,97785.00
2019-06-07T13:45:08.424Z,97780.00
2019-06-07T13:50:33.827Z,97771.00
2019-06-07T13:55:53.910Z,97779.00
2019-06-07T14:01:01.091Z,97772.00
2019-06-07T14:06:10.316Z,97785.00
2019-06-07T14:11:50.132Z,97772.00
2019-06-07T14:16:55.005Z,97760.00
2019-06-07T14:22:03.473Z,97755.00
2019-06-07T14:27:29.721Z,97757.00
2019-06-07T14:32:52.757Z,97748.00
2019-06-07T14:38:00.826Z,97737.00
2019-06-07T14:43:08.146Z,97738.00
2019-06-07T14:48:27.888Z,97747.00
2019-06-07T14:53:53.534Z,97742.00
2019-06-07T14:59:02.660Z,97746.00
2019-06-07T15:04:10.908Z,97742.00
2019-06-07T15:09:37.359Z,97747.00
2019-06-07T15:14:54.118Z,97755.00
2019-06-07T15:20:06.846Z,97748.00
2019-06-07T15:25:15.922Z,97740.00
2019-06-07T15:30:23.337Z,97740.00
2019-06-07T15:35:35.959Z,97731.00
2019-06-07T15:40:42.432Z,97728.00
2019-06-07T15:46:02.326Z,97727.00
2019-06-07T15:51:30.548Z,97730.00
2019-06-07T15:56:49.981Z,97718.00
2019-06-07T16:01:57.574Z,97711.00
2019-06-07T16:07:08.568Z,97720.00
2019-06-07T16:12:18.471Z,97704.00
2019-06-07T16:17:28.302Z,97691.00
2019-06-07T16:22:35.873Z,97685.00
2019-06-07T16:27:44.794Z,97694.00
2019-06-07T16:32:52.374Z,97693.00
2019-06-07T16:38:00.718Z,97694.00
2019-06-07T16:43:17.537Z,97697.00
2019-06-07T16:48:20.099Z,97701.00
2019-06-07T16:53:27.936Z,97702.00
2019-06-07T16:58:35.348Z,97701.00
2019-06-07T17:03:43.533Z,97703.00
2019-06-07T17:08:50.979Z,97705.00
2019-06-07T17:13:59.277Z,97704.00
2019-06-07T17:19:07.663Z,97691.00
2019-06-07T17:24:16.347Z,97680.00
2019-06-07T17:29:24.226Z,97684.00
2019-06-07T17:34:35.492Z,97684.00
2019-06-07T17:39:44.979Z,97685.00
2019-06-07T17:44:52.319Z,97670.00
2019-06-07T17:49:59.361Z,97670.00
2019-06-07T17:55:11.709Z,97655.00
2019-06-07T18:00:33.269Z,97659.00
2019-06-07T18:05:32.885Z,97659.00
2019-06-07T18:10:40.814Z,97655.00
2019-06-07T18:16:07.701Z,97653.00
2019-06-07T18:21:33.265Z,97656.00
2019-06-07T18:26:42.418Z,97650.00
2019-06-07T18:31:49.223Z,97642.00
2019-06-07T18:37:02.973Z,97643.00
2019-06-07T18:42:28.288Z,97647.00
2019-06-07T18:47:53.730Z,97636.00
2019-06-07T18:53:02.481Z,97634.00
2019-06-07T18:58:12.941Z,97636.00
2019-06-07T19:03:21.238Z,97623.00
2019-06-07T19:08:52.157Z,97630.00
2019-06-07T19:14:03.624Z,97630.00
2019-06-07T19:19:11.188Z,97640.00
2019-06-07T19:24:18.225Z,97634.00
2019-06-07T19:29:26.174Z,97635.00
2019-06-07T19:34:33.514Z,97628.00
2019-06-07T19:39:41.555Z,97627.00
2019-06-07T19:44:54.368Z,97631.00
2019-06-07T19:49:58.810Z,97636.00
2019-06-07T19:55:09.723Z,97652.00
2019-06-07T20:00:17.325Z,97661.00
2019-06-07T20:05:28.485Z,97665.00
2019-06-07T20:10:35.489Z,97662.00
2019-06-07T20:15:44.616Z,97664.00
2019-06-07T20:20:51.596Z,97672.00
2019-06-07T20:26:00.110Z,97672.00
2019-06-07T20:31:08.211Z,97668.00
2019-06-07T20:36:16.447Z,97665.00
2019-06-07T20:41:24.401Z,97659.00
2019-06-07T20:46:31.295Z,97649.00
2019-06-07T20:51:38.379Z,97652.00
2019-06-07T20:56:45.538Z,97657.00
2019-06-07T21:01:56.320Z,97641.00
2019-06-07T21:07:08.136Z,97630.00
2019-06-07T21:12:28.622Z,97645.00
2019-06-07T21:17:37.622Z,97649.00
2019-06-07T21:22:45.719Z,97653.00
2019-06-07T21:27:52.733Z,97655.00
2019-06-07T21:33:01.357Z,97659.00
2019-06-07T21:38:09.927Z,97659.00
2019-06-07T21:43:17.134Z,97661.00
2019-06-07T21:48:28.841Z,97667.00
2019-06-07T21:53:54.501Z,97662.00
2019-06-07T21:59:03.459Z,97667.00
2019-06-07T22:04:11.720Z,97680.00
2019-06-07T22:09:36.827Z,97690.00
2019-06-07T22:14:44.610Z,97723.00
2019-06-07T22:19:51.720Z,97745.00
2019-06-07T22:24:59.230Z,97753.00
2019-06-07T22:30:10.515Z,97757.00
2019-06-07T22:35:17.690Z,97746.00
2019-06-07T22:40:25.824Z,97765.00
2019-06-07T22:45:33.256Z,97772.00
2019-06-07T23:09:02.111Z,97905.00
2019-06-07T23:14:11.213Z,97909.00
2019-06-07T23:19:18.535Z,97940.00
2019-06-07T23:24:26.618Z,97979.00
2019-06-07T23:29:34.160Z,98003.00
2019-06-07T23:34:42.164Z,98014.00
2019-06-07T23:39:49.711Z,98041.00
2019-06-07T23:44:58.325Z,98056.00
2019-06-07T23:50:08.359Z,98081.00
2019-06-07T23:55:33.612Z,98107.00
